sensor_id;sensor_type;location;lat;lon;timestamp;P1;durP1;ratioP1;P2;durP2;ratioP2
19199;SDS011;9732;52.498;5.408;2022-12-05T00:01:14;34.80;;;12.20;;
19199;SDS011;9732;52.498;5.408;2022-12-05T00:03:43;35.87;;;13.77;;
19199;SDS011;9732;52.498;5.408;2022-12-05T00:06:11;34.80;;;14.83;;
19199;SDS011;9732;52.498;5.408;2022-12-05T00:08:40;36.77;;;13.67;;
19199;SDS011;9732;52.498;5.408;2022-12-05T00:11:10;38.90;;;14.37;;
19199;SDS011;9732;52.498;5.408;2022-12-05T00:13:40;37.73;;;14.40;;
19199;SDS011;9732;52.498;5.408;2022-12-05T00:16:09;42.70;;;15.43;;
19199;SDS011;9732;52.498;5.408;2022-12-05T00:18:38;36.87;;;14.23;;
19199;SDS011;9732;52.498;5.408;2022-12-05T00:21:06;38.73;;;15.20;;
19199;SDS011;9732;52.498;5.408;2022-12-05T00:23:38;40.97;;;14.93;;
19199;SDS011;9732;52.498;5.408;2022-12-05T00:26:06;32.70;;;13.50;;
19199;SDS011;9732;52.498;5.408;2022-12-05T00:28:34;35.07;;;14.17;;
19199;SDS011;9732;52.498;5.408;2022-12-05T00:31:04;40.90;;;15.47;;
19199;SDS011;9732;52.498;5.408;2022-12-05T00:33:33;32.77;;;13.23;;
19199;SDS011;9732;52.498;5.408;2022-12-05T00:36:01;37.53;;;14.70;;
19199;SDS011;9732;52.498;5.408;2022-12-05T00:38:30;43.40;;;14.33;;
19199;SDS011;9732;52.498;5.408;2022-12-05T00:41:01;28.87;;;11.77;;
19199;SDS011;9732;52.498;5.408;2022-12-05T00:43:32;34.47;;;14.43;;
19199;SDS011;9732;52.498;5.408;2022-12-05T00:46:01;33.87;;;14.07;;
19199;SDS011;9732;52.498;5.408;2022-12-05T00:48:35;32.10;;;13.73;;
19199;SDS011;9732;52.498;5.408;2022-12-05T00:51:05;39.40;;;13.87;;
19199;SDS011;9732;52.498;5.408;2022-12-05T00:53:35;35.70;;;13.73;;
19199;SDS011;9732;52.498;5.408;2022-12-05T00:56:03;37.90;;;14.50;;
19199;SDS011;9732;52.498;5.408;2022-12-05T00:58:32;38.07;;;14.47;;
19199;SDS011;9732;52.498;5.408;2022-12-05T01:01:05;34.80;;;14.23;;
19199;SDS011;9732;52.498;5.408;2022-12-05T01:03:32;34.23;;;13.97;;
19199;SDS011;9732;52.498;5.408;2022-12-05T01:06:00;39.57;;;14.37;;
19199;SDS011;9732;52.498;5.408;2022-12-05T01:08:30;33.13;;;12.33;;
19199;SDS011;9732;52.498;5.408;2022-12-05T01:10:59;34.93;;;12.83;;
19199;SDS011;9732;52.498;5.408;2022-12-05T01:13:26;30.57;;;12.63;;
19199;SDS011;9732;52.498;5.408;2022-12-05T01:15:54;33.17;;;14.10;;
19199;SDS011;9732;52.498;5.408;2022-12-05T01:18:23;37.47;;;13.40;;
19199;SDS011;9732;52.498;5.408;2022-12-05T01:20:51;29.43;;;11.20;;
19199;SDS011;9732;52.498;5.408;2022-12-05T01:23:20;29.17;;;12.37;;
19199;SDS011;9732;52.498;5.408;2022-12-05T01:25:50;35.60;;;12.37;;
19199;SDS011;9732;52.498;5.408;2022-12-05T01:28:19;26.00;;;12.60;;
19199;SDS011;9732;52.498;5.408;2022-12-05T01:30:47;39.93;;;13.37;;
19199;SDS011;9732;52.498;5.408;2022-12-05T01:33:15;31.30;;;12.50;;
19199;SDS011;9732;52.498;5.408;2022-12-05T01:35:45;29.00;;;12.10;;
19199;SDS011;9732;52.498;5.408;2022-12-05T01:38:12;29.90;;;11.30;;
19199;SDS011;9732;52.498;5.408;2022-12-05T01:40:41;34.57;;;12.87;;
19199;SDS011;9732;52.498;5.408;2022-12-05T01:43:13;27.17;;;11.53;;
19199;SDS011;9732;52.498;5.408;2022-12-05T01:45:42;31.93;;;12.50;;
19199;SDS011;9732;52.498;5.408;2022-12-05T01:48:13;34.67;;;12.73;;
19199;SDS011;9732;52.498;5.408;2022-12-05T01:50:47;33.47;;;12.90;;
19199;SDS011;9732;52.498;5.408;2022-12-05T01:53:17;31.27;;;13.03;;
19199;SDS011;9732;52.498;5.408;2022-12-05T01:55:45;28.20;;;12.13;;
19199;SDS011;9732;52.498;5.408;2022-12-05T01:58:17;28.10;;;12.23;;
19199;SDS011;9732;52.498;5.408;2022-12-05T02:00:45;33.07;;;12.57;;
19199;SDS011;9732;52.498;5.408;2022-12-05T02:03:13;31.50;;;11.87;;
19199;SDS011;9732;52.498;5.408;2022-12-05T02:05:45;28.43;;;11.90;;
19199;SDS011;9732;52.498;5.408;2022-12-05T02:08:17;28.27;;;11.57;;
19199;SDS011;9732;52.498;5.408;2022-12-05T02:10:45;27.17;;;11.33;;
19199;SDS011;9732;52.498;5.408;2022-12-05T02:13:20;30.37;;;11.40;;
19199;SDS011;9732;52.498;5.408;2022-12-05T02:15:55;25.87;;;11.87;;
19199;SDS011;9732;52.498;5.408;2022-12-05T02:18:33;31.87;;;11.70;;
19199;SDS011;9732;52.498;5.408;2022-12-05T02:21:17;34.00;;;12.50;;
19199;SDS011;9732;52.498;5.408;2022-12-05T02:27:06;31.93;;;12.07;;
19199;SDS011;9732;52.498;5.408;2022-12-05T02:32:35;28.63;;;11.80;;
19199;SDS011;9732;52.498;5.408;2022-12-05T02:35:15;29.50;;;11.83;;
19199;SDS011;9732;52.498;5.408;2022-12-05T02:37:56;25.30;;;10.13;;
19199;SDS011;9732;52.498;5.408;2022-12-05T02:40:33;29.60;;;11.70;;
19199;SDS011;9732;52.498;5.408;2022-12-05T02:43:10;28.80;;;11.23;;
19199;SDS011;9732;52.498;5.408;2022-12-05T02:45:44;32.77;;;12.80;;
19199;SDS011;9732;52.498;5.408;2022-12-05T02:48:17;31.07;;;12.27;;
19199;SDS011;9732;52.498;5.408;2022-12-05T02:50:47;28.57;;;12.20;;
19199;SDS011;9732;52.498;5.408;2022-12-05T02:53:18;28.00;;;12.03;;
19199;SDS011;9732;52.498;5.408;2022-12-05T02:55:49;30.00;;;11.73;;
19199;SDS011;9732;52.498;5.408;2022-12-05T02:58:18;32.63;;;13.07;;
19199;SDS011;9732;52.498;5.408;2022-12-05T03:00:52;26.90;;;11.50;;
19199;SDS011;9732;52.498;5.408;2022-12-05T03:03:23;26.97;;;12.40;;
19199;SDS011;9732;52.498;5.408;2022-12-05T03:05:53;27.27;;;12.33;;
19199;SDS011;9732;52.498;5.408;2022-12-05T03:08:26;26.23;;;11.73;;
19199;SDS011;9732;52.498;5.408;2022-12-05T03:10:57;25.73;;;11.63;;
19199;SDS011;9732;52.498;5.408;2022-12-05T03:13:28;33.17;;;11.70;;
19199;SDS011;9732;52.498;5.408;2022-12-05T03:16:01;27.47;;;11.10;;
19199;SDS011;9732;52.498;5.408;2022-12-05T03:18:33;30.77;;;12.20;;
19199;SDS011;9732;52.498;5.408;2022-12-05T03:21:04;29.50;;;12.87;;
19199;SDS011;9732;52.498;5.408;2022-12-05T03:23:37;33.23;;;12.53;;
19199;SDS011;9732;52.498;5.408;2022-12-05T03:26:13;38.57;;;14.37;;
19199;SDS011;9732;52.498;5.408;2022-12-05T03:28:53;37.73;;;13.87;;
19199;SDS011;9732;52.498;5.408;2022-12-05T03:31:29;28.23;;;12.40;;
19199;SDS011;9732;52.498;5.408;2022-12-05T03:34:04;33.93;;;13.03;;
19199;SDS011;9732;52.498;5.408;2022-12-05T03:36:35;31.80;;;12.20;;
19199;SDS011;9732;52.498;5.408;2022-12-05T03:39:07;37.23;;;13.37;;
19199;SDS011;9732;52.498;5.408;2022-12-05T03:41:45;29.50;;;11.73;;
19199;SDS011;9732;52.498;5.408;2022-12-05T03:44:22;32.90;;;12.67;;
19199;SDS011;9732;52.498;5.408;2022-12-05T03:46:57;36.80;;;13.40;;
19199;SDS011;9732;52.498;5.408;2022-12-05T03:49:31;28.97;;;11.87;;
19199;SDS011;9732;52.498;5.408;2022-12-05T03:52:03;32.37;;;13.30;;
19199;SDS011;9732;52.498;5.408;2022-12-05T03:54:36;34.77;;;13.10;;
19199;SDS011;9732;52.498;5.408;2022-12-05T03:57:10;38.57;;;14.37;;
19199;SDS011;9732;52.498;5.408;2022-12-05T03:59:45;37.43;;;14.53;;
19199;SDS011;9732;52.498;5.408;2022-12-05T04:02:20;38.33;;;14.17;;
19199;SDS011;9732;52.498;5.408;2022-12-05T04:04:52;32.57;;;13.27;;
19199;SDS011;9732;52.498;5.408;2022-12-05T04:07:24;43.47;;;15.10;;
19199;SDS011;9732;52.498;5.408;2022-12-05T04:09:55;41.00;;;15.60;;
19199;SDS011;9732;52.498;5.408;2022-12-05T04:12:28;37.90;;;13.63;;
19199;SDS011;9732;52.498;5.408;2022-12-05T04:14:58;37.30;;;15.67;;
19199;SDS011;9732;52.498;5.408;2022-12-05T04:17:31;43.97;;;16.00;;
19199;SDS011;9732;52.498;5.408;2022-12-05T04:20:05;41.43;;;15.27;;
19199;SDS011;9732;52.498;5.408;2022-12-05T04:22:53;44.23;;;14.83;;
19199;SDS011;9732;52.498;5.408;2022-12-05T04:25:20;46.90;;;15.47;;
19199;SDS011;9732;52.498;5.408;2022-12-05T04:28:15;45.83;;;14.47;;
19199;SDS011;9732;52.498;5.408;2022-12-05T04:30:49;40.90;;;14.93;;
19199;SDS011;9732;52.498;5.408;2022-12-05T04:33:22;42.47;;;16.30;;
19199;SDS011;9732;52.498;5.408;2022-12-05T04:35:56;43.83;;;13.93;;
19199;SDS011;9732;52.498;5.408;2022-12-05T04:38:31;41.57;;;15.57;;
19199;SDS011;9732;52.498;5.408;2022-12-05T04:41:05;43.73;;;15.43;;
19199;SDS011;9732;52.498;5.408;2022-12-05T04:43:39;40.70;;;16.00;;
19199;SDS011;9732;52.498;5.408;2022-12-05T04:46:10;35.77;;;14.33;;
19199;SDS011;9732;52.498;5.408;2022-12-05T04:48:48;45.37;;;15.80;;
19199;SDS011;9732;52.498;5.408;2022-12-05T04:51:20;42.87;;;15.37;;
19199;SDS011;9732;52.498;5.408;2022-12-05T04:53:51;38.20;;;14.83;;
19199;SDS011;9732;52.498;5.408;2022-12-05T04:56:21;39.57;;;14.67;;
19199;SDS011;9732;52.498;5.408;2022-12-05T04:58:53;42.10;;;15.70;;
19199;SDS011;9732;52.498;5.408;2022-12-05T05:01:22;42.60;;;15.00;;
19199;SDS011;9732;52.498;5.408;2022-12-05T05:03:58;39.97;;;14.90;;
19199;SDS011;9732;52.498;5.408;2022-12-05T05:06:30;46.93;;;15.90;;
19199;SDS011;9732;52.498;5.408;2022-12-05T05:08:58;38.23;;;14.60;;
19199;SDS011;9732;52.498;5.408;2022-12-05T05:11:26;45.80;;;14.93;;
19199;SDS011;9732;52.498;5.408;2022-12-05T05:13:54;39.30;;;14.77;;
19199;SDS011;9732;52.498;5.408;2022-12-05T05:16:22;38.97;;;14.23;;
19199;SDS011;9732;52.498;5.408;2022-12-05T05:18:52;39.20;;;14.57;;
19199;SDS011;9732;52.498;5.408;2022-12-05T05:21:22;38.10;;;13.83;;
19199;SDS011;9732;52.498;5.408;2022-12-05T05:23:51;35.47;;;14.10;;
19199;SDS011;9732;52.498;5.408;2022-12-05T05:26:19;32.77;;;12.90;;
19199;SDS011;9732;52.498;5.408;2022-12-05T05:28:48;35.27;;;13.77;;
19199;SDS011;9732;52.498;5.408;2022-12-05T05:31:16;28.30;;;12.83;;
19199;SDS011;9732;52.498;5.408;2022-12-05T05:33:48;32.57;;;13.33;;
19199;SDS011;9732;52.498;5.408;2022-12-05T05:36:16;31.27;;;13.90;;
19199;SDS011;9732;52.498;5.408;2022-12-05T05:38:46;36.73;;;14.03;;
19199;SDS011;9732;52.498;5.408;2022-12-05T05:41:15;29.70;;;12.27;;
19199;SDS011;9732;52.498;5.408;2022-12-05T05:43:44;32.17;;;13.77;;
19199;SDS011;9732;52.498;5.408;2022-12-05T05:46:13;28.20;;;12.83;;
19199;SDS011;9732;52.498;5.408;2022-12-05T05:48:42;28.87;;;12.00;;
19199;SDS011;9732;52.498;5.408;2022-12-05T05:51:10;29.67;;;12.47;;
19199;SDS011;9732;52.498;5.408;2022-12-05T05:53:39;27.57;;;11.67;;
19199;SDS011;9732;52.498;5.408;2022-12-05T05:56:08;30.07;;;12.13;;
19199;SDS011;9732;52.498;5.408;2022-12-05T05:58:36;26.50;;;11.60;;
19199;SDS011;9732;52.498;5.408;2022-12-05T06:01:04;22.33;;;11.10;;
19199;SDS011;9732;52.498;5.408;2022-12-05T06:03:34;22.70;;;10.53;;
19199;SDS011;9732;52.498;5.408;2022-12-05T06:06:04;23.57;;;10.67;;
19199;SDS011;9732;52.498;5.408;2022-12-05T06:08:34;24.57;;;11.37;;
19199;SDS011;9732;52.498;5.408;2022-12-05T06:11:04;22.37;;;9.83;;
19199;SDS011;9732;52.498;5.408;2022-12-05T06:13:33;21.00;;;10.13;;
19199;SDS011;9732;52.498;5.408;2022-12-05T06:16:01;20.97;;;9.60;;
19199;SDS011;9732;52.498;5.408;2022-12-05T06:18:30;24.23;;;10.23;;
19199;SDS011;9732;52.498;5.408;2022-12-05T06:20:58;18.17;;;8.73;;
19199;SDS011;9732;52.498;5.408;2022-12-05T06:23:28;20.50;;;9.57;;
19199;SDS011;9732;52.498;5.408;2022-12-05T06:25:56;19.57;;;9.70;;
19199;SDS011;9732;52.498;5.408;2022-12-05T06:28:24;18.33;;;8.67;;
19199;SDS011;9732;52.498;5.408;2022-12-05T06:30:52;18.30;;;9.10;;
19199;SDS011;9732;52.498;5.408;2022-12-05T06:33:20;19.90;;;9.73;;
19199;SDS011;9732;52.498;5.408;2022-12-05T06:35:59;19.33;;;9.10;;
19199;SDS011;9732;52.498;5.408;2022-12-05T06:38:27;20.27;;;9.00;;
19199;SDS011;9732;52.498;5.408;2022-12-05T06:40:54;14.50;;;8.03;;
19199;SDS011;9732;52.498;5.408;2022-12-05T06:43:23;16.00;;;8.60;;
19199;SDS011;9732;52.498;5.408;2022-12-05T06:45:54;17.63;;;8.03;;
19199;SDS011;9732;52.498;5.408;2022-12-05T06:48:23;18.83;;;8.77;;
19199;SDS011;9732;52.498;5.408;2022-12-05T06:50:52;14.43;;;8.17;;
19199;SDS011;9732;52.498;5.408;2022-12-05T06:53:19;15.20;;;8.33;;
19199;SDS011;9732;52.498;5.408;2022-12-05T06:55:54;15.53;;;7.60;;
19199;SDS011;9732;52.498;5.408;2022-12-05T06:58:21;14.67;;;7.53;;
19199;SDS011;9732;52.498;5.408;2022-12-05T07:00:48;16.13;;;7.20;;
19199;SDS011;9732;52.498;5.408;2022-12-05T07:03:34;13.93;;;6.70;;
19199;SDS011;9732;52.498;5.408;2022-12-05T07:06:01;10.73;;;6.03;;
19199;SDS011;9732;52.498;5.408;2022-12-05T07:08:29;12.40;;;6.03;;
19199;SDS011;9732;52.498;5.408;2022-12-05T07:10:56;11.67;;;6.47;;
19199;SDS011;9732;52.498;5.408;2022-12-05T07:13:23;10.43;;;6.20;;
19199;SDS011;9732;52.498;5.408;2022-12-05T07:15:50;10.70;;;5.77;;
19199;SDS011;9732;52.498;5.408;2022-12-05T07:18:17;12.03;;;5.80;;
19199;SDS011;9732;52.498;5.408;2022-12-05T07:20:50;11.53;;;5.60;;
19199;SDS011;9732;52.498;5.408;2022-12-05T07:23:21;8.00;;;5.13;;
19199;SDS011;9732;52.498;5.408;2022-12-05T07:25:48;10.70;;;5.50;;
19199;SDS011;9732;52.498;5.408;2022-12-05T07:28:14;10.37;;;5.37;;
19199;SDS011;9732;52.498;5.408;2022-12-05T07:30:41;14.03;;;7.13;;
19199;SDS011;9732;52.498;5.408;2022-12-05T07:33:08;9.07;;;4.93;;
19199;SDS011;9732;52.498;5.408;2022-12-05T07:35:35;8.20;;;4.53;;
19199;SDS011;9732;52.498;5.408;2022-12-05T07:38:03;11.20;;;5.73;;
19199;SDS011;9732;52.498;5.408;2022-12-05T07:40:30;10.37;;;5.20;;
19199;SDS011;9732;52.498;5.408;2022-12-05T07:42:56;10.17;;;5.73;;
19199;SDS011;9732;52.498;5.408;2022-12-05T07:45:23;10.47;;;4.90;;
19199;SDS011;9732;52.498;5.408;2022-12-05T07:47:50;9.47;;;5.23;;
19199;SDS011;9732;52.498;5.408;2022-12-05T07:50:16;8.60;;;4.80;;
19199;SDS011;9732;52.498;5.408;2022-12-05T07:52:43;10.83;;;5.67;;
19199;SDS011;9732;52.498;5.408;2022-12-05T07:55:11;11.47;;;5.10;;
19199;SDS011;9732;52.498;5.408;2022-12-05T07:57:38;8.97;;;4.93;;
19199;SDS011;9732;52.498;5.408;2022-12-05T08:00:05;7.23;;;5.00;;
19199;SDS011;9732;52.498;5.408;2022-12-05T08:02:32;10.63;;;5.33;;
19199;SDS011;9732;52.498;5.408;2022-12-05T08:04:59;10.50;;;6.23;;
19199;SDS011;9732;52.498;5.408;2022-12-05T08:07:26;11.43;;;5.80;;
19199;SDS011;9732;52.498;5.408;2022-12-05T08:09:53;12.17;;;5.83;;
19199;SDS011;9732;52.498;5.408;2022-12-05T08:12:21;10.13;;;5.77;;
19199;SDS011;9732;52.498;5.408;2022-12-05T08:14:47;11.40;;;5.57;;
19199;SDS011;9732;52.498;5.408;2022-12-05T08:17:14;10.07;;;4.97;;
19199;SDS011;9732;52.498;5.408;2022-12-05T08:19:42;9.20;;;5.27;;
19199;SDS011;9732;52.498;5.408;2022-12-05T08:22:08;11.27;;;5.63;;
19199;SDS011;9732;52.498;5.408;2022-12-05T08:24:35;12.53;;;6.23;;
19199;SDS011;9732;52.498;5.408;2022-12-05T08:27:02;10.20;;;6.23;;
19199;SDS011;9732;52.498;5.408;2022-12-05T08:29:31;11.83;;;6.37;;
19199;SDS011;9732;52.498;5.408;2022-12-05T08:31:58;11.40;;;5.80;;
19199;SDS011;9732;52.498;5.408;2022-12-05T08:34:25;12.53;;;6.10;;
19199;SDS011;9732;52.498;5.408;2022-12-05T08:36:51;9.07;;;4.93;;
19199;SDS011;9732;52.498;5.408;2022-12-05T08:39:18;8.73;;;5.27;;
19199;SDS011;9732;52.498;5.408;2022-12-05T08:41:45;9.87;;;5.50;;
19199;SDS011;9732;52.498;5.408;2022-12-05T08:44:13;9.53;;;5.13;;
19199;SDS011;9732;52.498;5.408;2022-12-05T08:46:42;10.40;;;5.27;;
19199;SDS011;9732;52.498;5.408;2022-12-05T08:49:11;7.77;;;4.63;;
19199;SDS011;9732;52.498;5.408;2022-12-05T08:51:38;11.37;;;5.00;;
19199;SDS011;9732;52.498;5.408;2022-12-05T08:54:05;7.67;;;4.67;;
19199;SDS011;9732;52.498;5.408;2022-12-05T08:56:32;9.37;;;5.13;;
19199;SDS011;9732;52.498;5.408;2022-12-05T08:58:59;6.93;;;4.60;;
19199;SDS011;9732;52.498;5.408;2022-12-05T09:01:26;7.77;;;4.97;;
19199;SDS011;9732;52.498;5.408;2022-12-05T09:03:57;12.83;;;5.00;;
19199;SDS011;9732;52.498;5.408;2022-12-05T09:06:25;7.77;;;4.67;;
19199;SDS011;9732;52.498;5.408;2022-12-05T09:08:53;8.10;;;4.87;;
19199;SDS011;9732;52.498;5.408;2022-12-05T09:11:22;6.70;;;4.53;;
19199;SDS011;9732;52.498;5.408;2022-12-05T09:13:51;8.30;;;5.07;;
19199;SDS011;9732;52.498;5.408;2022-12-05T09:16:19;8.97;;;4.57;;
19199;SDS011;9732;52.498;5.408;2022-12-05T09:18:48;9.73;;;4.87;;
19199;SDS011;9732;52.498;5.408;2022-12-05T09:21:17;9.53;;;4.57;;
19199;SDS011;9732;52.498;5.408;2022-12-05T09:23:46;12.17;;;5.47;;
19199;SDS011;9732;52.498;5.408;2022-12-05T09:26:14;9.33;;;5.20;;
19199;SDS011;9732;52.498;5.408;2022-12-05T09:28:42;8.50;;;4.87;;
19199;SDS011;9732;52.498;5.408;2022-12-05T09:31:09;7.90;;;5.33;;
19199;SDS011;9732;52.498;5.408;2022-12-05T09:33:37;10.83;;;5.43;;
19199;SDS011;9732;52.498;5.408;2022-12-05T09:36:05;10.07;;;5.57;;
19199;SDS011;9732;52.498;5.408;2022-12-05T09:38:35;8.30;;;5.23;;
19199;SDS011;9732;52.498;5.408;2022-12-05T09:41:05;9.67;;;5.73;;
19199;SDS011;9732;52.498;5.408;2022-12-05T09:44:11;12.57;;;5.73;;
19199;SDS011;9732;52.498;5.408;2022-12-05T09:46:44;8.63;;;5.03;;
19199;SDS011;9732;52.498;5.408;2022-12-05T09:49:17;13.53;;;5.87;;
19199;SDS011;9732;52.498;5.408;2022-12-05T09:51:44;11.53;;;5.13;;
19199;SDS011;9732;52.498;5.408;2022-12-05T09:54:15;12.00;;;5.57;;
19199;SDS011;9732;52.498;5.408;2022-12-05T09:56:43;10.37;;;5.50;;
19199;SDS011;9732;52.498;5.408;2022-12-05T09:59:14;10.17;;;5.53;;
19199;SDS011;9732;52.498;5.408;2022-12-05T10:01:45;12.13;;;5.97;;
19199;SDS011;9732;52.498;5.408;2022-12-05T10:04:26;11.77;;;5.67;;
19199;SDS011;9732;52.498;5.408;2022-12-05T10:07:08;9.67;;;5.27;;
19199;SDS011;9732;52.498;5.408;2022-12-05T10:09:50;10.00;;;4.90;;
19199;SDS011;9732;52.498;5.408;2022-12-05T10:12:29;12.57;;;5.47;;
19199;SDS011;9732;52.498;5.408;2022-12-05T10:15:08;11.37;;;5.67;;
19199;SDS011;9732;52.498;5.408;2022-12-05T10:17:39;11.73;;;5.47;;
19199;SDS011;9732;52.498;5.408;2022-12-05T10:20:09;9.70;;;5.37;;
19199;SDS011;9732;52.498;5.408;2022-12-05T10:22:41;12.07;;;5.03;;
19199;SDS011;9732;52.498;5.408;2022-12-05T10:25:13;11.57;;;5.47;;
19199;SDS011;9732;52.498;5.408;2022-12-05T10:27:44;10.63;;;5.00;;
19199;SDS011;9732;52.498;5.408;2022-12-05T10:30:16;10.80;;;5.23;;
19199;SDS011;9732;52.498;5.408;2022-12-05T10:32:49;11.57;;;5.23;;
19199;SDS011;9732;52.498;5.408;2022-12-05T10:35:19;13.03;;;5.63;;
19199;SDS011;9732;52.498;5.408;2022-12-05T10:37:47;9.67;;;5.20;;
19199;SDS011;9732;52.498;5.408;2022-12-05T10:40:18;11.83;;;5.20;;
19199;SDS011;9732;52.498;5.408;2022-12-05T10:42:45;12.57;;;5.50;;
19199;SDS011;9732;52.498;5.408;2022-12-05T10:45:14;13.00;;;4.90;;
19199;SDS011;9732;52.498;5.408;2022-12-05T10:47:43;13.93;;;5.87;;
19199;SDS011;9732;52.498;5.408;2022-12-05T10:50:18;14.47;;;5.63;;
19199;SDS011;9732;52.498;5.408;2022-12-05T10:52:48;13.10;;;6.10;;
19199;SDS011;9732;52.498;5.408;2022-12-05T10:55:18;12.37;;;5.50;;
19199;SDS011;9732;52.498;5.408;2022-12-05T10:57:49;16.73;;;6.30;;
19199;SDS011;9732;52.498;5.408;2022-12-05T11:00:19;16.57;;;5.57;;
19199;SDS011;9732;52.498;5.408;2022-12-05T11:02:47;12.77;;;6.07;;
19199;SDS011;9732;52.498;5.408;2022-12-05T11:05:16;12.27;;;5.23;;
19199;SDS011;9732;52.498;5.408;2022-12-05T11:07:53;18.90;;;6.07;;
19199;SDS011;9732;52.498;5.408;2022-12-05T11:10:24;17.43;;;6.67;;
19199;SDS011;9732;52.498;5.408;2022-12-05T11:12:54;10.87;;;6.37;;
19199;SDS011;9732;52.498;5.408;2022-12-05T11:15:22;14.13;;;6.50;;
19199;SDS011;9732;52.498;5.408;2022-12-05T11:17:50;14.63;;;6.43;;
19199;SDS011;9732;52.498;5.408;2022-12-05T11:20:32;14.50;;;6.00;;
19199;SDS011;9732;52.498;5.408;2022-12-05T11:23:15;12.57;;;6.37;;
19199;SDS011;9732;52.498;5.408;2022-12-05T11:25:52;12.80;;;5.97;;
19199;SDS011;9732;52.498;5.408;2022-12-05T11:28:30;13.27;;;5.73;;
19199;SDS011;9732;52.498;5.408;2022-12-05T11:31:00;13.73;;;5.70;;
19199;SDS011;9732;52.498;5.408;2022-12-05T11:33:29;10.97;;;5.53;;
19199;SDS011;9732;52.498;5.408;2022-12-05T11:35:58;11.23;;;6.37;;
19199;SDS011;9732;52.498;5.408;2022-12-05T11:38:29;10.57;;;5.53;;
19199;SDS011;9732;52.498;5.408;2022-12-05T11:41:04;17.93;;;6.93;;
19199;SDS011;9732;52.498;5.408;2022-12-05T11:43:46;16.60;;;6.07;;
19199;SDS011;9732;52.498;5.408;2022-12-05T11:46:30;13.00;;;6.47;;
19199;SDS011;9732;52.498;5.408;2022-12-05T11:49:12;15.13;;;7.30;;
19199;SDS011;9732;52.498;5.408;2022-12-05T11:51:48;15.43;;;7.27;;
19199;SDS011;9732;52.498;5.408;2022-12-05T11:54:44;12.47;;;6.30;;
19199;SDS011;9732;52.498;5.408;2022-12-05T11:57:31;13.33;;;6.50;;
19199;SDS011;9732;52.498;5.408;2022-12-05T12:00:17;14.87;;;7.00;;
19199;SDS011;9732;52.498;5.408;2022-12-05T12:02:57;15.13;;;6.47;;
19199;SDS011;9732;52.498;5.408;2022-12-05T12:06:00;16.07;;;6.40;;
19199;SDS011;9732;52.498;5.408;2022-12-05T12:08:44;12.47;;;6.70;;
19199;SDS011;9732;52.498;5.408;2022-12-05T12:11:22;13.33;;;6.23;;
19199;SDS011;9732;52.498;5.408;2022-12-05T12:13:59;12.80;;;6.23;;
19199;SDS011;9732;52.498;5.408;2022-12-05T12:16:38;15.63;;;6.00;;
19199;SDS011;9732;52.498;5.408;2022-12-05T12:19:19;17.87;;;7.13;;
19199;SDS011;9732;52.498;5.408;2022-12-05T12:22:00;43.00;;;15.40;;
19199;SDS011;9732;52.498;5.408;2022-12-05T12:24:52;48.63;;;19.50;;
19199;SDS011;9732;52.498;5.408;2022-12-05T12:27:34;16.83;;;6.73;;
19199;SDS011;9732;52.498;5.408;2022-12-05T12:30:11;14.43;;;6.40;;
19199;SDS011;9732;52.498;5.408;2022-12-05T12:32:43;13.93;;;6.77;;
19199;SDS011;9732;52.498;5.408;2022-12-05T12:35:25;15.17;;;6.70;;
19199;SDS011;9732;52.498;5.408;2022-12-05T12:38:02;19.17;;;7.13;;
19199;SDS011;9732;52.498;5.408;2022-12-05T12:40:44;10.27;;;6.27;;
19199;SDS011;9732;52.498;5.408;2022-12-05T12:43:17;18.27;;;7.13;;
19199;SDS011;9732;52.498;5.408;2022-12-05T12:46:03;16.70;;;7.40;;
19199;SDS011;9732;52.498;5.408;2022-12-05T12:48:44;14.70;;;7.37;;
19199;SDS011;9732;52.498;5.408;2022-12-05T12:51:22;15.23;;;7.00;;
19199;SDS011;9732;52.498;5.408;2022-12-05T12:54:01;14.73;;;6.63;;
19199;SDS011;9732;52.498;5.408;2022-12-05T12:56:42;13.67;;;7.13;;
19199;SDS011;9732;52.498;5.408;2022-12-05T12:59:21;14.53;;;6.27;;
19199;SDS011;9732;52.498;5.408;2022-12-05T13:01:59;20.17;;;7.27;;
19199;SDS011;9732;52.498;5.408;2022-12-05T13:04:31;13.87;;;6.43;;
19199;SDS011;9732;52.498;5.408;2022-12-05T13:07:04;13.37;;;6.17;;
19199;SDS011;9732;52.498;5.408;2022-12-05T13:09:38;14.30;;;6.63;;
19199;SDS011;9732;52.498;5.408;2022-12-05T13:12:09;12.93;;;6.27;;
19199;SDS011;9732;52.498;5.408;2022-12-05T13:14:39;17.67;;;6.90;;
19199;SDS011;9732;52.498;5.408;2022-12-05T13:17:14;12.87;;;6.23;;
19199;SDS011;9732;52.498;5.408;2022-12-05T13:19:45;17.43;;;6.37;;
19199;SDS011;9732;52.498;5.408;2022-12-05T13:22:14;13.80;;;6.20;;
19199;SDS011;9732;52.498;5.408;2022-12-05T13:24:42;13.50;;;6.57;;
19199;SDS011;9732;52.498;5.408;2022-12-05T13:27:13;14.07;;;6.83;;
19199;SDS011;9732;52.498;5.408;2022-12-05T13:29:41;16.53;;;7.13;;
19199;SDS011;9732;52.498;5.408;2022-12-05T13:32:26;16.67;;;7.17;;
19199;SDS011;9732;52.498;5.408;2022-12-05T13:34:56;14.97;;;7.10;;
19199;SDS011;9732;52.498;5.408;2022-12-05T13:37:29;19.77;;;7.37;;
19199;SDS011;9732;52.498;5.408;2022-12-05T13:40:20;15.53;;;6.47;;
19199;SDS011;9732;52.498;5.408;2022-12-05T13:43:08;16.57;;;6.27;;
19199;SDS011;9732;52.498;5.408;2022-12-05T13:45:36;12.47;;;6.20;;
19199;SDS011;9732;52.498;5.408;2022-12-05T13:48:19;20.27;;;5.93;;
19199;SDS011;9732;52.498;5.408;2022-12-05T13:50:51;12.83;;;5.57;;
19199;SDS011;9732;52.498;5.408;2022-12-05T13:53:22;15.97;;;5.83;;
19199;SDS011;9732;52.498;5.408;2022-12-05T13:55:55;12.53;;;5.83;;
19199;SDS011;9732;52.498;5.408;2022-12-05T13:58:38;13.87;;;6.30;;
19199;SDS011;9732;52.498;5.408;2022-12-05T14:07:41;12.93;;;5.83;;
19199;SDS011;9732;52.498;5.408;2022-12-05T14:10:10;11.10;;;5.37;;
19199;SDS011;9732;52.498;5.408;2022-12-05T14:12:48;14.57;;;6.43;;
19199;SDS011;9732;52.498;5.408;2022-12-05T14:15:25;17.90;;;6.17;;
19199;SDS011;9732;52.498;5.408;2022-12-05T14:18:01;12.00;;;5.70;;
19199;SDS011;9732;52.498;5.408;2022-12-05T14:20:43;14.53;;;5.77;;
19199;SDS011;9732;52.498;5.408;2022-12-05T14:23:37;11.27;;;5.53;;
19199;SDS011;9732;52.498;5.408;2022-12-05T14:26:15;11.77;;;6.17;;
19199;SDS011;9732;52.498;5.408;2022-12-05T14:29:05;11.47;;;6.00;;
19199;SDS011;9732;52.498;5.408;2022-12-05T14:31:56;13.90;;;5.13;;
19199;SDS011;9732;52.498;5.408;2022-12-05T14:34:30;17.47;;;6.13;;
19199;SDS011;9732;52.498;5.408;2022-12-05T14:36:59;18.60;;;7.03;;
19199;SDS011;9732;52.498;5.408;2022-12-05T14:39:38;15.13;;;6.07;;
19199;SDS011;9732;52.498;5.408;2022-12-05T14:42:17;11.87;;;5.33;;
19199;SDS011;9732;52.498;5.408;2022-12-05T14:44:51;11.93;;;5.63;;
19199;SDS011;9732;52.498;5.408;2022-12-05T14:47:22;14.07;;;5.70;;
19199;SDS011;9732;52.498;5.408;2022-12-05T14:49:53;15.87;;;6.13;;
19199;SDS011;9732;52.498;5.408;2022-12-05T14:52:26;15.53;;;5.23;;
19199;SDS011;9732;52.498;5.408;2022-12-05T14:54:59;15.83;;;5.87;;
19199;SDS011;9732;52.498;5.408;2022-12-05T14:57:30;12.57;;;5.77;;
19199;SDS011;9732;52.498;5.408;2022-12-05T14:59:58;14.53;;;5.67;;
19199;SDS011;9732;52.498;5.408;2022-12-05T15:02:31;11.67;;;5.43;;
19199;SDS011;9732;52.498;5.408;2022-12-05T15:05:02;10.70;;;4.67;;
19199;SDS011;9732;52.498;5.408;2022-12-05T15:07:43;12.50;;;5.90;;
19199;SDS011;9732;52.498;5.408;2022-12-05T15:10:14;15.37;;;5.33;;
19199;SDS011;9732;52.498;5.408;2022-12-05T15:12:46;18.00;;;6.10;;
19199;SDS011;9732;52.498;5.408;2022-12-05T15:15:16;13.57;;;5.57;;
19199;SDS011;9732;52.498;5.408;2022-12-05T15:17:47;12.83;;;5.60;;
19199;SDS011;9732;52.498;5.408;2022-12-05T15:20:20;9.50;;;4.47;;
19199;SDS011;9732;52.498;5.408;2022-12-05T15:22:52;26.70;;;10.67;;
19199;SDS011;9732;52.498;5.408;2022-12-05T15:25:24;13.67;;;5.47;;